Погода Ушана 2 недели

Гродненская область, Белоруссия

23 июля-05 августа
  • 23июля
    Сегодня
    +17°
    +27°
    Практически безоблачно
    ВремяПогодаТемператураВлажностьДавлениеВетер, м/сВероятность осадков
    00:00Ясно и безоблачно+18°C85 %745 мм1.9 м/с2 %
    03:00Ясно и безоблачно+16°C90 %745 мм1.9 м/с2 %
    06:00Ясно и безоблачно+15°C93 %745 мм1.3 м/с2 %
    09:00Ясно и безоблачно+22°C79 %746 мм0.9 м/с2 %
    12:00Ясно и безоблачно+25°C56 %745 мм1.0 м/с1 %
    15:00Практически безоблачно+27°C49 %745 мм1.1 м/с8 %
    18:00Облачно с прояснениями+26°C50 %745 мм1.3 м/с15 %
    21:00Облачно с прояснениями+24°C65 %745 мм0.7 м/с7 %
  • 24июля
    Среда
    +16°
    +27°
    Практически безоблачно
    ВремяПогодаТемператураВлажностьДавлениеВетер, м/сВероятность осадков
    00:00Облачно с прояснениями+20°C71 %744 мм2.3 м/с2 %
    03:00Облачно с прояснениями+18°C78 %744 мм2.2 м/с2 %
    06:00Небольшая облачность+17°C80 %744 мм2.5 м/с2 %
    09:00Небольшая облачность+21°C68 %744 мм2.4 м/с1 %
    12:00Небольшая облачность+24°C52 %744 мм2.9 м/с5 %
    15:00Практически безоблачно+25°C49 %743 мм2.3 м/с27 %
    18:00Облачно с прояснениями+27°C46 %742 мм1.7 м/с38 %
    21:00Небольшая облачность и лёгкий дождик+23°C70 %742 мм0.8 м/с22 %
  • 25июля
    Четверг
    +15°
    +26°
    Небольшая облачность
    ВремяПогодаТемператураВлажностьДавлениеВетер, м/сВероятность осадков
    00:00Практически безоблачно+19°C78 %742 мм1.7 м/с6 %
    03:00Облачно с прояснениями+18°C74 %742 мм2.8 м/с6 %
    06:00Облачно с прояснениями+16°C70 %741 мм3.2 м/с9 %
    09:00Облачно с прояснениями+20°C60 %742 мм3.1 м/с12 %
    12:00Облачно с прояснениями+23°C43 %742 мм4.0 м/с18 %
    15:00Небольшая облачность+23°C41 %741 мм3.1 м/с22 %
    18:00Облачно с прояснениями+25°C37 %741 мм2.0 м/с25 %
    21:00Облачно с прояснениями+22°C66 %741 мм2.3 м/с20 %
  • 26июля
    Пятница
    +15°
    +26°
    Небольшая облачность
    ВремяПогодаТемператураВлажностьДавлениеВетер, м/сВероятность осадков
    00:00Небольшая облачность+18°C57 %742 мм2.3 м/с13 %
    03:00Ясно и безоблачно+17°C59 %742 мм2.8 м/с6 %
    06:00Ясно и безоблачно+15°C66 %743 мм2.5 м/с9 %
    09:00Ясно и безоблачно+21°C58 %744 мм2.5 м/с13 %
    12:00Небольшая облачность+24°C37 %744 мм1.8 м/с14 %
    15:00Небольшая облачность+25°C33 %744 мм1.1 м/с29 %
    18:00Практически безоблачно+25°C35 %744 мм1.2 м/с33 %
    21:00Небольшая облачность+23°C56 %745 мм1.3 м/с18 %
  • 27июля
    Суббота
    +17°
    +28°
    Ясно и безоблачно
    ВремяПогодаТемператураВлажностьДавлениеВетер, м/сВероятность осадков
    00:00Ясно и безоблачно+19°C69 %746 мм2.2 м/с8 %
    03:00Ясно и безоблачно+17°C72 %746 мм0.9 м/с10 %
    06:00Ясно и безоблачно+16°C79 %747 мм2.0 м/с8 %
    09:00Облачно с прояснениями+23°C60 %748 мм0.8 м/с9 %
    12:00Облачно с прояснениями+26°C39 %748 мм2.6 м/с16 %
    15:00Ясно и безоблачно+27°C41 %748 мм2.8 м/с27 %
    18:00Практически безоблачно+26°C49 %748 мм3.0 м/с26 %
    21:00Ясно и безоблачно+24°C65 %748 мм2.0 м/с12 %
Мы используем cookies
Соглашаюсь